Time,TemperatureF,DewpointF,PressureIn,WindDirection,WindDirectionDegrees,WindSpeedMPH,WindSpeedGustMPH,Humidity,HourlyPrecipIn,Conditions,Clouds,dailyrainin,SoftwareType,DateUTC
2013-05-14 00:02:00,59.5,54.7,30.07,SSE,156,4.6,4.6,84,0.00,CLR,,0.00,WeatherDisplay:10.37,2013-05-13 22:02:00,
2013-05-14 00:07:00,59.4,54.9,30.08,SSE,147,3.5,3.5,85,0.00,CLR,,0.00,WeatherDisplay:10.37,2013-05-13 22:07:00,
2013-05-14 00:12:00,59.4,54.9,30.07,SSE,149,4.0,4.0,85,0.00,CLR,,0.00,WeatherDisplay:10.37,2013-05-13 22:12:00,
2013-05-14 00:17:00,59.5,55.0,30.07,SE,139,4.6,4.6,85,0.00,CLR,,0.00,WeatherDisplay:10.37,2013-05-13 22:17:00,
2013-05-14 00:22:00,59.5,55.0,30.07,SSE,152,4.6,4.6,85,0.00,CLR,,0.00,WeatherDisplay:10.37,2013-05-13 22:22:00,
2013-05-14 00:27:00,59.4,54.9,30.07,SE,143,4.6,4.6,85,0.00,CLR,,0.00,WeatherDisplay:10.37,2013-05-13 22:27:00,
2013-05-14 00:32:00,59.4,54.9,30.07,SSE,158,5.8,5.8,85,0.00,CLR,,0.00,WeatherDisplay:10.37,2013-05-13 22:32:00,
2013-05-14 00:37:00,59.4,54.9,30.07,SE,142,4.6,4.6,85,0.00,CLR,,0.00,WeatherDisplay:10.37,2013-05-13 22:37:00,
2013-05-14 00:42:00,59.4,54.9,30.07,SSE,149,5.8,5.8,85,0.00,CLR,,0.00,WeatherDisplay:10.37,2013-05-13 22:42:00,
2013-05-14 00:47:00,59.3,54.8,30.07,SSE,161,4.0,4.0,85,0.00,CLR,,0.00,WeatherDisplay:10.37,2013-05-13 22:47:00,
2013-05-14 00:52:00,59.2,54.7,30.08,SSE,153,4.0,4.0,85,0.00,CLR,,0.00,WeatherDisplay:10.37,2013-05-13 22:52:00,
2013-05-14 00:57:00,59.3,55.1,30.08,SSE,160,5.8,5.8,86,0.00,CLR,,0.00,WeatherDisplay:10.37,2013-05-13 22:57:00,
2013-05-14 01:02:00,59.4,55.2,30.07,SSE,159,6.9,6.9,86,0.00,CLR,,0.00,WeatherDisplay:10.37,2013-05-13 23:02:00,
2013-05-14 01:07:00,59.4,55.2,30.08,SSE,162,5.0,5.0,86,0.00,CLR,,0.00,WeatherDisplay:10.37,2013-05-13 23:07:00,
2013-05-14 01:12:00,59.4,55.2,30.08,SE,144,4.6,4.6,86,0.00,CLR,,0.00,WeatherDisplay:10.37,2013-05-13 23:12:00,
2013-05-14 01:17:00,59.4,55.2,30.08,SE,143,4.6,4.6,86,0.00,CLR,,0.00,WeatherDisplay:10.37,2013-05-13 23:17:00,
2013-05-14 01:22:00,59.4,55.2,30.08,SSE,149,4.0,4.0,86,0.00,CLR,,0.00,WeatherDisplay:10.37,2013-05-13 23:22:00,
2013-05-14 01:27:00,59.5,55.3,30.08,SSE,151,4.6,4.6,86,0.00,CLR,,0.00,WeatherDisplay:10.37,2013-05-13 23:27:00,
2013-05-14 01:32:00,59.5,55.3,30.08,SE,130,4.6,4.6,86,0.00,CLR,,0.00,WeatherDisplay:10.37,2013-05-13 23:32:00,
2013-05-14 01:37:00,59.5,55.3,30.08,SE,138,4.0,4.0,86,0.00,CLR,,0.00,WeatherDisplay:10.37,2013-05-13 23:37:00,
2013-05-14 01:42:00,59.5,55.3,30.07,SSE,154,4.6,4.6,86,0.00,CLR,,0.00,WeatherDisplay:10.37,2013-05-13 23:42:00,
2013-05-14 01:47:00,59.5,55.3,30.07,SSE,154,3.5,3.5,86,0.00,CLR,,0.00,WeatherDisplay:10.37,2013-05-13 23:47:00,
2013-05-14 01:52:00,59.6,55.4,30.07,South,169,3.5,3.5,86,0.00,CLR,,0.00,WeatherDisplay:10.37,2013-05-13 23:52:00,
2013-05-14 01:57:00,59.5,55.3,30.07,South,170,5.8,5.8,86,0.00,CLR,,0.00,WeatherDisplay:10.37,2013-05-13 23:57:00,
2013-05-14 02:02:00,59.5,55.3,30.07,SSE,165,3.5,3.5,86,0.00,CLR,,0.00,WeatherDisplay:10.37,2013-05-14 00:02:00,
2013-05-14 02:07:00,59.5,55.3,30.07,South,178,4.6,4.6,86,0.00,CLR,,0.00,WeatherDisplay:10.37,2013-05-14 00:07:00,
2013-05-14 02:12:00,59.5,55.6,30.07,South,174,3.5,3.5,87,0.00,CLR,,0.00,WeatherDisplay:10.37,2013-05-14 00:12:00,
2013-05-14 02:17:00,59.6,55.7,30.07,South,179,2.3,2.3,87,0.00,CLR,,0.00,WeatherDisplay:10.37,2013-05-14 00:17:00,
2013-05-14 02:22:00,59.6,55.7,30.06,South,177,2.3,2.3,87,0.00,CLR,,0.00,WeatherDisplay:10.37,2013-05-14 00:22:00,
2013-05-14 02:27:00,59.6,55.7,30.06,South,177,2.3,2.3,87,0.00,CLR,,0.00,WeatherDisplay:10.37,2013-05-14 00:27:00,
2013-05-14 02:32:00,59.5,55.6,30.06,South,184,3.5,3.5,87,0.00,CLR,,0.00,WeatherDisplay:10.37,2013-05-14 00:32:00,
2013-05-14 02:37:00,59.5,55.6,30.06,South,185,3.5,3.5,87,0.00,CLR,,0.00,WeatherDisplay:10.37,2013-05-14 00:37:00,
2013-05-14 02:42:00,59.5,55.6,30.06,South,186,3.5,3.5,87,0.00,CLR,,0.00,WeatherDisplay:10.37,2013-05-14 00:42:00,
2013-05-14 02:47:00,59.5,55.6,30.05,South,186,3.5,3.5,87,0.00,CLR,,0.00,WeatherDisplay:10.37,2013-05-14 00:47:00,
2013-05-14 02:52:00,59.5,55.6,30.05,South,186,3.5,3.5,87,0.00,CLR,,0.00,WeatherDisplay:10.37,2013-05-14 00:52:00,
2013-05-14 02:57:00,59.4,55.5,30.05,South,187,1.1,1.1,87,0.00,CLR,,0.00,WeatherDisplay:10.37,2013-05-14 00:57:00,
2013-05-14 03:02:00,59.4,55.5,30.04,South,187,0.0,0.0,87,0.00,CLR,,0.00,WeatherDisplay:10.37,2013-05-14 01:02:00,
2013-05-14 03:07:00,59.3,55.4,30.04,WNW,301,3.5,3.5,87,0.00,CLR,,0.00,WeatherDisplay:10.37,2013-05-14 01:07:00,
2013-05-14 03:12:00,59.2,55.3,30.04,WNW,302,3.5,3.5,87,0.00,CLR,,0.00,WeatherDisplay:10.37,2013-05-14 01:12:00,
2013-05-14 03:17:00,59.1,55.2,30.03,WNW,303,3.5,3.5,87,0.00,CLR,,0.00,WeatherDisplay:10.37,2013-05-14 01:17:00,
2013-05-14 03:22:00,59.1,55.5,30.03,WNW,301,3.5,3.5,88,0.00,CLR,,0.00,WeatherDisplay:10.37,2013-05-14 01:22:00,
2013-05-14 03:27:00,58.9,55.4,30.03,NNW,339,4.0,4.0,88,0.00,CLR,,0.00,WeatherDisplay:10.37,2013-05-14 01:27:00,
2013-05-14 03:32:00,58.7,55.2,30.02,NNW,330,3.5,3.5,88,0.00,CLR,,0.00,WeatherDisplay:10.37,2013-05-14 01:32:00,
2013-05-14 03:37:00,58.6,55.1,30.02,NNW,340,4.6,4.6,88,0.00,CLR,,0.00,WeatherDisplay:10.37,2013-05-14 01:37:00,
2013-05-14 03:42:00,58.5,55.0,30.02,NNW,339,4.6,4.6,88,0.00,CLR,,0.00,WeatherDisplay:10.37,2013-05-14 01:42:00,
2013-05-14 03:47:00,58.5,55.0,30.02,NNW,339,5.0,5.0,88,0.00,CLR,,0.00,WeatherDisplay:10.37,2013-05-14 01:47:00,
2013-05-14 03:52:00,58.4,54.9,30.01,NNW,339,5.0,5.0,88,0.00,CLR,,0.00,WeatherDisplay:10.37,2013-05-14 01:52:00,
2013-05-14 03:57:00,58.3,54.8,30.01,NNW,337,4.6,4.6,88,0.00,CLR,,0.00,WeatherDisplay:10.37,2013-05-14 01:57:00,
2013-05-14 04:02:00,58.3,54.8,30.01,NNW,338,4.6,4.6,88,0.00,CLR,,0.00,WeatherDisplay:10.37,2013-05-14 02:02:00,
2013-05-14 04:07:00,58.3,54.8,30.01,North,354,5.0,5.0,88,0.00,CLR,,0.00,WeatherDisplay:10.37,2013-05-14 02:07:00,
2013-05-14 04:12:00,58.4,54.9,30.00,North,349,5.8,5.8,88,0.00,CLR,,0.00,WeatherDisplay:10.37,2013-05-14 02:12:00,
2013-05-14 04:17:00,58.4,54.9,30.00,North,354,6.9,6.9,88,0.00,CLR,,0.00,WeatherDisplay:10.37,2013-05-14 02:17:00,
2013-05-14 04:22:00,58.4,54.9,30.00,North,354,7.0,7.0,88,0.00,CLR,,0.00,WeatherDisplay:10.37,2013-05-14 02:22:00,
2013-05-14 04:27:00,58.5,55.0,30.00,NNW,339,5.8,5.8,88,0.00,CLR,,0.00,WeatherDisplay:10.37,2013-05-14 02:27:00,
2013-05-14 04:32:00,58.4,54.5,30.00,NNW,337,9.2,9.2,87,0.00,CLR,,0.00,WeatherDisplay:10.37,2013-05-14 02:32:00,
2013-05-14 04:37:00,58.5,54.6,30.00,NNW,345,9.2,9.2,87,0.00,CLR,,0.00,WeatherDisplay:10.37,2013-05-14 02:37:00,
2013-05-14 04:42:00,58.5,54.6,30.00,North,354,9.2,9.2,87,0.00,CLR,,0.00,WeatherDisplay:10.37,2013-05-14 02:42:00,
2013-05-14 04:47:00,58.5,54.6,29.99,North,354,9.2,9.2,87,0.00,CLR,,0.00,WeatherDisplay:10.37,2013-05-14 02:47:00,
2013-05-14 04:52:00,58.5,54.6,29.99,North,359,8.1,8.1,87,0.00,CLR,,0.00,WeatherDisplay:10.37,2013-05-14 02:52:00,
2013-05-14 04:57:00,58.5,54.6,29.99,North,359,9.2,9.2,87,0.00,CLR,,0.00,WeatherDisplay:10.37,2013-05-14 02:57:00,
2013-05-14 05:02:00,58.4,54.5,29.99,NNE,20,6.9,6.9,87,0.00,CLR,,0.00,WeatherDisplay:10.37,2013-05-14 03:02:00,
2013-05-14 05:07:00,58.3,54.4,29.99,North,8,7.0,7.0,87,0.00,CLR,,0.00,WeatherDisplay:10.37,2013-05-14 03:07:00,
2013-05-14 05:12:00,58.1,54.2,29.99,North,10,8.1,8.1,87,0.00,CLR,,0.00,WeatherDisplay:10.37,2013-05-14 03:12:00,
2013-05-14 05:17:00,57.9,54.4,29.98,NE,41,6.9,6.9,88,0.00,CLR,,0.00,WeatherDisplay:10.37,2013-05-14 03:17:00,
2013-05-14 05:22:00,57.8,54.3,29.98,North,10,6.9,6.9,88,0.00,CLR,,0.00,WeatherDisplay:10.37,2013-05-14 03:22:00,
2013-05-14 05:27:00,57.8,54.3,29.98,NE,45,5.8,5.8,88,0.00,CLR,,0.00,WeatherDisplay:10.37,2013-05-14 03:27:00,
2013-05-14 05:32:00,57.9,54.4,29.98,North,4,8.1,8.1,88,0.00,CLR,,0.00,WeatherDisplay:10.37,2013-05-14 03:32:00,
2013-05-14 05:37:00,57.9,54.4,29.98,NE,54,9.2,9.2,88,0.00,CLR,,0.00,WeatherDisplay:10.37,2013-05-14 03:37:00,
2013-05-14 05:42:00,58.1,54.6,29.98,ENE,66,9.2,9.2,88,0.00,CLR,,0.00,WeatherDisplay:10.37,2013-05-14 03:42:00,
2013-05-14 05:47:00,58.1,54.2,29.98,NE,43,9.2,9.2,87,0.00,CLR,,0.00,WeatherDisplay:10.37,2013-05-14 03:47:00,
2013-05-14 05:52:00,57.9,54.1,29.98,NE,55,8.1,8.1,87,0.00,CLR,,0.00,WeatherDisplay:10.37,2013-05-14 03:52:00,
2013-05-14 05:57:00,57.8,54.3,29.98,ENE,59,10.4,10.4,88,0.00,CLR,,0.00,WeatherDisplay:10.37,2013-05-14 03:57:00,
2013-05-14 06:01:00,57.7,54.2,29.98,East,83,11.5,11.5,88,0.00,CLR,,0.00,WeatherDisplay:10.37,2013-05-14 04:01:00,
2013-05-14 06:06:00,57.5,54.0,29.98,NE,42,10.4,10.4,88,0.00,CLR,,0.00,WeatherDisplay:10.37,2013-05-14 04:06:00,
2013-05-14 06:11:00,57.6,54.1,29.98,ENE,59,10.4,10.4,88,0.00,CLR,,0.00,WeatherDisplay:10.37,2013-05-14 04:11:00,
2013-05-14 06:16:00,57.6,54.1,29.98,NE,56,9.2,9.2,88,0.00,CLR,,0.00,WeatherDisplay:10.37,2013-05-14 04:16:00,
2013-05-14 06:21:00,57.5,54.0,29.98,NE,55,11.5,11.5,88,0.00,CLR,,0.00,WeatherDisplay:10.37,2013-05-14 04:21:00,
2013-05-14 06:26:00,57.5,54.3,29.98,ENE,57,11.5,11.5,89,0.00,CLR,,0.00,WeatherDisplay:10.37,2013-05-14 04:26:00,
2013-05-14 06:31:00,57.5,54.3,29.98,ENE,62,13.0,13.0,89,0.00,CLR,,0.00,WeatherDisplay:10.37,2013-05-14 04:31:00,
2013-05-14 06:36:00,57.4,54.2,29.98,NE,42,11.5,11.5,89,0.00,CLR,,0.00,WeatherDisplay:10.37,2013-05-14 04:36:00,
2013-05-14 06:41:00,57.4,54.2,29.98,East,85,12.7,12.7,89,0.00,CLR,,0.00,WeatherDisplay:10.37,2013-05-14 04:41:00,
2013-05-14 06:46:00,57.3,54.1,29.98,East,89,13.8,13.8,89,0.00,CLR,,0.00,WeatherDisplay:10.37,2013-05-14 04:46:00,
2013-05-14 06:51:00,57.3,54.1,29.98,ENE,69,13.0,13.0,89,0.00,CLR,,0.00,WeatherDisplay:10.37,2013-05-14 04:51:00,
2013-05-14 06:56:00,57.4,54.2,29.97,East,79,15.0,15.0,89,0.00,CLR,,0.00,WeatherDisplay:10.37,2013-05-14 04:56:00,
2013-05-14 07:01:00,57.4,54.2,29.97,ENE,61,15.0,15.0,89,0.00,CLR,,0.00,WeatherDisplay:10.37,2013-05-14 05:01:00,
2013-05-14 07:06:00,57.4,54.2,29.96,ENE,70,15.0,15.0,89,0.00,CLR,,0.00,WeatherDisplay:10.37,2013-05-14 05:06:00,
2013-05-14 07:11:00,57.4,54.2,29.96,ENE,67,16.1,16.1,89,0.00,CLR,,0.00,WeatherDisplay:10.37,2013-05-14 05:11:00,
2013-05-14 07:16:00,57.4,54.5,29.97,ENE,75,16.1,16.1,90,0.00,CLR,,0.00,WeatherDisplay:10.37,2013-05-14 05:16:00,
2013-05-14 07:21:00,57.7,54.8,29.97,East,99,13.8,13.8,90,0.00,CLR,,0.00,WeatherDisplay:10.37,2013-05-14 05:21:00,
2013-05-14 07:26:00,57.9,55.0,29.97,ENE,77,15.0,15.0,90,0.00,CLR,,0.00,WeatherDisplay:10.37,2013-05-14 05:26:00,
2013-05-14 07:31:00,58.0,55.1,29.97,ENE,77,13.8,13.8,90,0.00,CLR,,0.00,WeatherDisplay:10.37,2013-05-14 05:31:00,
2013-05-14 07:36:00,58.2,55.3,29.97,East,90,15.0,15.0,90,0.00,CLR,,0.00,WeatherDisplay:10.37,2013-05-14 05:36:00,
2013-05-14 07:41:00,58.2,55.3,29.97,ENE,70,15.0,15.0,90,0.00,CLR,,0.00,WeatherDisplay:10.37,2013-05-14 05:41:00,
2013-05-14 07:46:00,58.3,55.4,29.97,ENE,62,13.0,13.0,90,0.00,CLR,,0.00,WeatherDisplay:10.37,2013-05-14 05:46:00,
2013-05-14 07:51:00,58.4,55.5,29.97,ENE,70,15.0,15.0,90,0.00,CLR,,0.00,WeatherDisplay:10.37,2013-05-14 05:51:00,
2013-05-14 07:56:00,58.6,55.7,29.98,ENE,77,12.7,12.7,90,0.00,CLR,,0.00,WeatherDisplay:10.37,2013-05-14 05:56:00,
2013-05-14 08:01:00,58.8,55.9,29.98,East,93,10.4,10.4,90,0.00,CLR,,0.00,WeatherDisplay:10.37,2013-05-14 06:01:00,
2013-05-14 08:06:00,58.9,56.0,29.98,ENE,75,12.7,12.7,90,0.00,CLR,,0.00,WeatherDisplay:10.37,2013-05-14 06:06:00,
2013-05-14 08:11:00,59.1,56.2,29.98,ENE,74,11.5,11.5,90,0.00,CLR,,0.00,WeatherDisplay:10.37,2013-05-14 06:11:00,
2013-05-14 08:16:00,59.3,56.4,29.98,NNE,25,11.5,11.5,90,0.00,CLR,,0.00,WeatherDisplay:10.37,2013-05-14 06:16:00,
2013-05-14 08:21:00,59.4,56.5,29.98,East,83,12.7,12.7,90,0.00,CLR,,0.00,WeatherDisplay:10.37,2013-05-14 06:21:00,
2013-05-14 08:26:00,59.4,56.2,29.98,ENE,76,13.8,13.8,89,0.00,CLR,,0.00,WeatherDisplay:10.37,2013-05-14 06:26:00,
2013-05-14 08:31:00,59.6,56.4,29.98,ENE,66,11.5,11.5,89,0.00,CLR,,0.00,WeatherDisplay:10.37,2013-05-14 06:31:00,
2013-05-14 08:36:00,59.7,56.5,29.98,East,91,11.5,11.5,89,0.00,CLR,,0.00,WeatherDisplay:10.37,2013-05-14 06:36:00,
2013-05-14 08:41:00,60.2,56.6,29.98,East,99,10.4,10.4,88,0.00,CLR,,0.00,WeatherDisplay:10.37,2013-05-14 06:41:00,
2013-05-14 08:46:00,60.2,56.3,29.98,NE,45,11.5,11.5,87,0.00,CLR,,0.00,WeatherDisplay:10.37,2013-05-14 06:46:00,
2013-05-14 08:51:00,60.3,56.4,29.98,East,83,9.0,9.0,87,0.00,CLR,,0.00,WeatherDisplay:10.37,2013-05-14 06:51:00,
2013-05-14 08:56:00,60.5,56.6,29.98,ENE,72,8.1,8.1,87,0.00,CLR,,0.00,WeatherDisplay:10.37,2013-05-14 06:56:00,
2013-05-14 09:01:00,60.6,56.4,29.98,ENE,69,10.4,10.4,86,0.00,CLR,,0.00,WeatherDisplay:10.37,2013-05-14 07:01:00,
2013-05-14 09:06:00,60.9,56.7,29.97,ENE,66,10.4,10.4,86,0.00,CLR,,0.00,WeatherDisplay:10.37,2013-05-14 07:06:00,
2013-05-14 09:11:00,61.4,56.8,29.97,ENE,68,9.2,9.2,85,0.00,CLR,,0.00,WeatherDisplay:10.37,2013-05-14 07:11:00,
2013-05-14 09:16:00,61.5,56.6,29.97,NNE,32,10.4,10.4,84,0.00,CLR,,0.00,WeatherDisplay:10.37,2013-05-14 07:16:00,
2013-05-14 09:21:00,61.8,57.2,29.97,SE,127,9.2,9.2,85,0.00,CLR,,0.00,WeatherDisplay:10.37,2013-05-14 07:21:00,
2013-05-14 09:26:00,62.1,56.9,29.97,ENE,77,8.1,8.1,83,0.00,CLR,,0.00,WeatherDisplay:10.37,2013-05-14 07:26:00,
2013-05-14 09:31:00,62.3,57.1,29.97,ENE,68,10.4,10.4,83,0.00,CLR,,0.00,WeatherDisplay:10.37,2013-05-14 07:31:00,
2013-05-14 09:36:00,62.6,56.7,29.97,East,80,11.5,11.5,81,0.00,CLR,,0.00,WeatherDisplay:10.37,2013-05-14 07:36:00,
2013-05-14 09:41:00,62.7,56.4,29.97,ENE,74,9.2,9.2,80,0.00,CLR,,0.00,WeatherDisplay:10.37,2013-05-14 07:41:00,
2013-05-14 09:46:00,62.9,56.3,29.96,East,95,11.5,11.5,79,0.00,CLR,,0.00,WeatherDisplay:10.37,2013-05-14 07:46:00,
2013-05-14 09:51:00,62.8,56.5,29.96,ENE,70,10.4,10.4,80,0.00,CLR,,0.00,WeatherDisplay:10.37,2013-05-14 07:51:00,
2013-05-14 09:56:00,63.1,56.8,29.96,East,86,10.4,10.4,80,0.00,CLR,,0.00,WeatherDisplay:10.37,2013-05-14 07:56:00,
2013-05-14 10:01:00,63.9,57.3,29.96,ENE,78,9.2,9.2,79,0.00,CLR,,0.00,WeatherDisplay:10.37,2013-05-14 08:01:00,
2013-05-14 10:06:00,64.0,57.7,29.96,East,81,8.1,8.1,80,0.00,CLR,,0.00,WeatherDisplay:10.37,2013-05-14 08:06:00,
2013-05-14 10:11:00,64.6,57.2,29.97,ESE,114,10.4,10.4,77,0.00,CLR,,0.00,WeatherDisplay:10.37,2013-05-14 08:11:00,
2013-05-14 10:16:00,64.6,57.2,29.97,ESE,114,9.2,9.2,77,0.00,CLR,,0.00,WeatherDisplay:10.37,2013-05-14 08:16:00,
2013-05-14 10:21:00,64.9,57.2,29.97,ESE,110,9.2,9.2,76,0.00,CLR,,0.00,WeatherDisplay:10.37,2013-05-14 08:21:00,
2013-05-14 10:26:00,64.7,57.0,29.97,NE,51,4.0,4.0,76,0.00,CLR,,0.00,WeatherDisplay:10.37,2013-05-14 08:26:00,
2013-05-14 10:31:00,64.6,57.2,29.97,ESE,120,10.4,10.4,77,0.00,CLR,,0.00,WeatherDisplay:10.37,2013-05-14 08:31:00,
2013-05-14 10:36:00,65.0,57.2,29.98,ENE,75,6.9,6.9,76,0.00,CLR,,0.00,WeatherDisplay:10.37,2013-05-14 08:36:00,
2013-05-14 10:41:00,65.0,56.9,29.98,East,81,10.4,10.4,75,0.00,CLR,,0.00,WeatherDisplay:10.37,2013-05-14 08:41:00,
2013-05-14 10:46:00,65.1,57.3,29.98,SE,135,8.1,8.1,76,0.00,CLR,,0.00,WeatherDisplay:10.37,2013-05-14 08:46:00,
2013-05-14 10:51:00,65.0,56.5,29.98,SE,145,10.4,10.4,74,0.00,CLR,,0.00,WeatherDisplay:10.37,2013-05-14 08:51:00,
2013-05-14 10:56:00,65.2,56.7,29.98,ENE,67,8.0,8.0,74,0.00,CLR,,0.00,WeatherDisplay:10.37,2013-05-14 08:56:00,
2013-05-14 11:01:00,65.0,56.5,29.97,ENE,77,9.2,9.2,74,0.00,CLR,,0.00,WeatherDisplay:10.37,2013-05-14 09:01:00,
2013-05-14 11:06:00,65.5,56.6,29.98,ESE,110,10.4,10.4,73,0.00,CLR,,0.00,WeatherDisplay:10.37,2013-05-14 09:06:00,
2013-05-14 11:11:00,65.5,57.0,29.97,East,84,8.1,8.1,74,0.00,CLR,,0.00,WeatherDisplay:10.37,2013-05-14 09:11:00,
2013-05-14 11:16:00,65.3,57.2,29.97,SE,126,9.2,9.2,75,0.00,CLR,,0.00,WeatherDisplay:10.37,2013-05-14 09:16:00,
2013-05-14 11:21:00,65.6,57.1,29.97,East,99,10.4,10.4,74,0.00,CLR,,0.00,WeatherDisplay:10.37,2013-05-14 09:21:00,
2013-05-14 11:26:00,65.7,56.8,29.97,East,85,9.2,9.2,73,0.00,CLR,,0.00,WeatherDisplay:10.37,2013-05-14 09:26:00,
2013-05-14 11:31:00,65.2,56.7,29.98,SE,137,10.4,10.4,74,0.00,CLR,,0.00,WeatherDisplay:10.37,2013-05-14 09:31:00,
2013-05-14 11:36:00,65.0,56.5,29.98,SE,139,9.2,9.2,74,0.00,CLR,,0.00,WeatherDisplay:10.37,2013-05-14 09:36:00,
2013-05-14 11:41:00,65.1,56.2,29.97,ESE,106,8.1,8.1,73,0.00,CLR,,0.00,WeatherDisplay:10.37,2013-05-14 09:41:00,
2013-05-14 11:46:00,65.4,56.5,29.97,ESE,116,8.1,8.1,73,0.00,CLR,,0.00,WeatherDisplay:10.37,2013-05-14 09:46:00,
2013-05-14 11:51:00,65.3,56.4,29.97,East,81,6.9,6.9,73,0.00,CLR,,0.00,WeatherDisplay:10.37,2013-05-14 09:51:00,
2013-05-14 11:56:00,65.3,57.2,29.97,ENE,60,5.8,5.8,75,0.00,CLR,,0.00,WeatherDisplay:10.37,2013-05-14 09:56:00,
2013-05-14 12:01:00,65.4,56.5,29.97,ESE,103,8.1,8.1,73,0.00,CLR,,0.00,WeatherDisplay:10.37,2013-05-14 10:01:00,
2013-05-14 12:06:00,65.2,56.7,29.97,SE,127,4.0,4.0,74,0.00,CLR,,0.00,WeatherDisplay:10.37,2013-05-14 10:06:00,
2013-05-14 12:11:00,65.4,56.1,29.97,East,99,11.5,11.5,72,0.00,CLR,,0.00,WeatherDisplay:10.37,2013-05-14 10:11:00,
2013-05-14 12:16:00,65.7,57.2,29.97,ENE,78,6.9,6.9,74,0.00,CLR,,0.00,WeatherDisplay:10.37,2013-05-14 10:16:00,
2013-05-14 12:21:00,66.6,57.3,29.98,ENE,78,11.5,11.5,72,0.00,CLR,,0.00,WeatherDisplay:10.37,2013-05-14 10:21:00,
2013-05-14 12:26:00,66.2,56.5,29.97,ESE,109,11.5,11.5,71,0.00,CLR,,0.00,WeatherDisplay:10.37,2013-05-14 10:26:00,
2013-05-14 12:31:00,66.0,57.1,29.97,East,88,9.2,9.2,73,0.00,CLR,,0.00,WeatherDisplay:10.37,2013-05-14 10:31:00,
2013-05-14 12:36:00,65.7,56.8,29.96,SE,135,9.2,9.2,73,0.00,CLR,,0.00,WeatherDisplay:10.37,2013-05-14 10:36:00,
2013-05-14 12:41:00,65.5,56.6,29.96,ESE,103,12.7,12.7,73,0.00,CLR,,0.00,WeatherDisplay:10.37,2013-05-14 10:41:00,
2013-05-14 12:46:00,65.3,56.8,29.96,ESE,112,11.5,11.5,74,0.00,CLR,,0.00,WeatherDisplay:10.37,2013-05-14 10:46:00,
2013-05-14 12:51:00,65.3,56.8,29.96,ENE,66,16.1,16.1,74,0.00,CLR,,0.00,WeatherDisplay:10.37,2013-05-14 10:51:00,
2013-05-14 12:56:00,65.5,56.6,29.95,NE,48,15.0,15.0,73,0.00,CLR,,0.00,WeatherDisplay:10.37,2013-05-14 10:56:00,
2013-05-14 13:01:00,65.9,57.4,29.95,NE,50,14.0,14.0,74,0.00,CLR,,0.00,WeatherDisplay:10.37,2013-05-14 11:01:00,
2013-05-14 13:06:00,65.3,56.0,29.94,East,89,12.7,12.7,72,0.00,CLR,,0.00,WeatherDisplay:10.37,2013-05-14 11:06:00,
2013-05-14 13:11:00,64.9,56.0,29.94,SSE,164,15.0,15.0,73,0.00,CLR,,0.00,WeatherDisplay:10.37,2013-05-14 11:11:00,
2013-05-14 13:16:00,65.0,56.9,29.94,SSE,159,11.5,11.5,75,0.00,CLR,,0.00,WeatherDisplay:10.37,2013-05-14 11:16:00,
2013-05-14 13:21:00,64.5,56.4,29.93,ESE,105,16.1,16.1,75,0.00,CLR,,0.00,WeatherDisplay:10.37,2013-05-14 11:21:00,
2013-05-14 13:26:00,64.6,56.5,29.93,SE,146,13.8,13.8,75,0.00,CLR,,0.00,WeatherDisplay:10.37,2013-05-14 11:26:00,
2013-05-14 13:31:00,64.7,56.2,29.93,ESE,102,12.7,12.7,74,0.00,CLR,,0.00,WeatherDisplay:10.37,2013-05-14 11:31:00,
2013-05-14 13:36:00,64.8,56.3,29.93,East,100,11.5,11.5,74,0.00,CLR,,0.00,WeatherDisplay:10.37,2013-05-14 11:36:00,
2013-05-14 13:41:00,64.8,56.3,29.93,ESE,116,11.5,11.5,74,0.00,CLR,,0.00,WeatherDisplay:10.37,2013-05-14 11:41:00,
2013-05-14 13:46:00,64.8,56.3,29.93,ENE,75,15.0,15.0,74,0.00,CLR,,0.00,WeatherDisplay:10.37,2013-05-14 11:46:00,
2013-05-14 13:52:00,65.1,56.2,29.92,SE,129,12.0,12.0,73,0.00,CLR,,0.00,WeatherDisplay:10.37,2013-05-14 11:52:00,
2013-05-14 13:56:00,64.4,55.9,29.92,ESE,108,11.5,11.5,74,0.00,CLR,,0.00,WeatherDisplay:10.37,2013-05-14 11:56:00,
2013-05-14 14:01:00,64.4,56.3,29.92,SE,128,12.7,12.7,75,0.00,CLR,,0.00,WeatherDisplay:10.37,2013-05-14 12:01:00,
2013-05-14 14:06:00,64.7,56.6,29.92,SE,146,15.0,15.0,75,0.00,CLR,,0.00,WeatherDisplay:10.37,2013-05-14 12:06:00,
2013-05-14 14:11:00,64.6,56.1,29.91,ESE,112,12.7,12.7,74,0.00,CLR,,0.00,WeatherDisplay:10.37,2013-05-14 12:11:00,
2013-05-14 14:16:00,64.1,56.0,29.92,SE,139,15.0,15.0,75,0.00,CLR,,0.00,WeatherDisplay:10.37,2013-05-14 12:16:00,
2013-05-14 14:21:00,64.7,56.6,29.91,North,4,15.0,15.0,75,0.00,CLR,,0.00,WeatherDisplay:10.37,2013-05-14 12:21:00,
2013-05-14 14:26:00,65.0,56.5,29.91,NE,48,10.4,10.4,74,0.00,CLR,,0.00,WeatherDisplay:10.37,2013-05-14 12:26:00,
2013-05-14 14:31:00,64.6,56.1,29.91,ESE,121,15.0,15.0,74,0.00,CLR,,0.00,WeatherDisplay:10.37,2013-05-14 12:31:00,
2013-05-14 14:36:00,64.2,56.1,29.91,East,96,16.1,16.1,75,0.00,CLR,,0.00,WeatherDisplay:10.37,2013-05-14 12:36:00,
2013-05-14 14:41:00,64.1,56.0,29.91,ESE,110,15.0,15.0,75,0.00,CLR,,0.00,WeatherDisplay:10.37,2013-05-14 12:41:00,
2013-05-14 14:46:00,63.9,56.2,29.90,ENE,73,16.1,16.1,76,0.00,CLR,,0.00,WeatherDisplay:10.37,2013-05-14 12:46:00,
2013-05-14 14:51:00,64.2,55.7,29.90,ESE,120,16.1,16.1,74,0.00,CLR,,0.00,WeatherDisplay:10.37,2013-05-14 12:51:00,
2013-05-14 14:57:00,64.4,56.3,29.90,East,97,11.5,11.5,75,0.00,CLR,,0.00,WeatherDisplay:10.37,2013-05-14 12:57:00,
2013-05-14 15:01:00,64.8,56.3,29.90,ESE,106,13.8,13.8,74,0.00,CLR,,0.00,WeatherDisplay:10.37,2013-05-14 13:01:00,
2013-05-14 15:06:00,64.6,56.1,29.91,ESE,112,11.5,11.5,74,0.00,CLR,,0.00,WeatherDisplay:10.37,2013-05-14 13:06:00,
2013-05-14 15:12:00,64.5,56.0,29.90,NNE,20,13.8,13.8,74,0.00,CLR,,0.00,WeatherDisplay:10.37,2013-05-14 13:12:00,
2013-05-14 15:17:00,64.0,55.9,29.89,East,96,13.0,13.0,75,0.00,CLR,,0.00,WeatherDisplay:10.37,2013-05-14 13:17:00,
2013-05-14 15:22:00,63.6,55.9,29.89,ESE,116,13.8,13.8,76,0.00,CLR,,0.00,WeatherDisplay:10.37,2013-05-14 13:22:00,
2013-05-14 15:26:00,63.6,55.9,29.89,NE,56,16.1,16.1,76,0.00,CLR,,0.00,WeatherDisplay:10.37,2013-05-14 13:26:00,
2013-05-14 15:32:00,63.3,56.0,29.89,NNE,29,12.7,12.7,77,0.00,CLR,,0.00,WeatherDisplay:10.37,2013-05-14 13:32:00,
2013-05-14 15:37:00,63.5,56.2,29.88,ESE,113,11.5,11.5,77,0.00,CLR,,0.00,WeatherDisplay:10.37,2013-05-14 13:37:00,
2013-05-14 15:41:00,63.7,56.0,29.88,ENE,78,14.0,14.0,76,0.00,CLR,,0.00,WeatherDisplay:10.37,2013-05-14 13:41:00,
2013-05-14 15:46:00,63.7,56.0,29.88,SE,124,12.7,12.7,76,0.00,CLR,,0.00,WeatherDisplay:10.37,2013-05-14 13:46:00,
2013-05-14 15:51:00,64.1,56.4,29.88,ESE,108,11.5,11.5,76,0.00,CLR,,0.00,WeatherDisplay:10.37,2013-05-14 13:51:00,
2013-05-14 15:56:00,64.0,55.9,29.88,ESE,118,11.5,11.8,75,0.00,CLR,,0.00,WeatherDisplay:10.37,2013-05-14 13:56:00,
2013-05-14 16:01:00,63.8,56.1,29.87,ESE,112,13.0,13.0,76,0.00,CLR,,0.00,WeatherDisplay:10.37,2013-05-14 14:01:00,
2013-05-14 16:06:00,63.5,56.2,29.87,ESE,102,11.5,11.5,77,0.00,CLR,,0.00,WeatherDisplay:10.37,2013-05-14 14:06:00,
2013-05-14 16:11:00,64.0,56.6,29.87,ESE,122,10.4,10.4,77,0.00,CLR,,0.00,WeatherDisplay:10.37,2013-05-14 14:11:00,
2013-05-14 16:16:00,63.6,55.5,29.88,NE,55,17.3,17.3,75,0.00,CLR,,0.00,WeatherDisplay:10.37,2013-05-14 14:16:00,
2013-05-14 16:21:00,63.7,56.0,29.88,SSE,149,13.8,13.8,76,0.00,CLR,,0.00,WeatherDisplay:10.37,2013-05-14 14:21:00,
2013-05-14 16:27:00,63.6,55.9,29.87,ESE,110,15.0,15.0,76,0.00,CLR,,0.00,WeatherDisplay:10.37,2013-05-14 14:27:00,
2013-05-14 16:32:00,63.0,55.7,29.87,SE,135,11.5,11.5,77,0.00,CLR,,0.00,WeatherDisplay:10.37,2013-05-14 14:32:00,
2013-05-14 16:37:00,63.0,56.4,29.86,East,93,6.9,6.9,79,0.00,CLR,,0.00,WeatherDisplay:10.37,2013-05-14 14:37:00,
2013-05-14 16:42:00,63.2,56.2,29.86,East,81,11.5,11.5,78,0.00,CLR,,0.00,WeatherDisplay:10.37,2013-05-14 14:42:00,
2013-05-14 16:47:00,62.5,55.5,29.86,ESE,118,13.8,13.8,78,0.00,CLR,,0.00,WeatherDisplay:10.37,2013-05-14 14:47:00,
2013-05-14 16:52:00,62.2,56.0,29.86,ESE,112,15.0,15.0,80,0.00,CLR,,0.00,WeatherDisplay:10.37,2013-05-14 14:52:00,
2013-05-14 16:57:00,62.1,55.9,29.85,ESE,113,16.1,16.1,80,0.00,CLR,,0.00,WeatherDisplay:10.37,2013-05-14 14:57:00,
2013-05-14 17:02:00,62.1,55.9,29.85,ENE,73,16.1,16.1,80,0.00,CLR,,0.00,WeatherDisplay:10.37,2013-05-14 15:02:00,
2013-05-14 17:07:00,62.3,56.0,29.84,SE,142,15.0,15.0,80,0.00,CLR,,0.00,WeatherDisplay:10.37,2013-05-14 15:07:00,
2013-05-14 17:12:00,62.5,56.2,29.84,ESE,110,13.0,13.0,80,0.00,CLR,,0.00,WeatherDisplay:10.37,2013-05-14 15:12:00,
2013-05-14 17:17:00,62.5,55.9,29.84,SE,125,15.0,15.0,79,0.00,CLR,,0.00,WeatherDisplay:10.37,2013-05-14 15:17:00,
2013-05-14 17:22:00,62.1,55.9,29.83,ESE,117,11.5,11.5,80,0.00,CLR,,0.00,WeatherDisplay:10.37,2013-05-14 15:22:00,
2013-05-14 17:27:00,62.0,55.8,29.83,SSE,152,15.0,15.0,80,0.00,CLR,,0.00,WeatherDisplay:10.37,2013-05-14 15:27:00,
2013-05-14 17:32:00,61.8,55.9,29.83,ESE,108,16.1,16.1,81,0.00,CLR,,0.00,WeatherDisplay:10.37,2013-05-14 15:32:00,
2013-05-14 17:37:00,61.7,55.8,29.83,East,91,11.5,11.5,81,0.00,CLR,,0.00,WeatherDisplay:10.37,2013-05-14 15:37:00,
2013-05-14 17:42:00,61.4,55.5,29.82,ESE,105,15.0,15.0,81,0.00,CLR,,0.00,WeatherDisplay:10.37,2013-05-14 15:42:00,
2013-05-14 17:47:00,61.4,55.9,29.82,East,89,15.0,15.0,82,0.00,CLR,,0.00,WeatherDisplay:10.37,2013-05-14 15:47:00,
2013-05-14 17:52:00,61.5,56.0,29.82,SE,140,13.8,13.8,82,0.00,CLR,,0.00,WeatherDisplay:10.37,2013-05-14 15:52:00,
2013-05-14 17:57:00,61.4,55.9,29.82,East,89,15.0,15.0,82,0.00,CLR,,0.00,WeatherDisplay:10.37,2013-05-14 15:57:00,
2013-05-14 18:02:00,61.6,56.0,29.82,East,83,13.8,13.8,82,0.00,CLR,,0.00,WeatherDisplay:10.37,2013-05-14 16:02:00,
2013-05-14 18:07:00,61.5,56.0,29.81,East,98,11.5,11.5,82,0.00,CLR,,0.00,WeatherDisplay:10.37,2013-05-14 16:07:00,
2013-05-14 18:12:00,61.3,56.1,29.81,ESE,112,13.8,13.8,83,0.00,CLR,,0.00,WeatherDisplay:10.37,2013-05-14 16:12:00,
2013-05-14 18:17:00,61.4,56.2,29.81,NE,49,13.8,13.8,83,0.00,CLR,,0.00,WeatherDisplay:10.37,2013-05-14 16:17:00,
2013-05-14 18:22:00,61.5,56.3,29.81,SE,126,15.0,15.0,83,0.00,CLR,,0.00,WeatherDisplay:10.37,2013-05-14 16:22:00,
2013-05-14 18:27:00,61.2,56.0,29.81,SE,139,13.8,13.8,83,0.00,CLR,,0.00,WeatherDisplay:10.37,2013-05-14 16:27:00,
2013-05-14 18:32:00,61.0,55.8,29.81,ESE,117,10.4,10.4,83,0.00,CLR,,0.00,WeatherDisplay:10.37,2013-05-14 16:32:00,
2013-05-14 18:37:00,60.9,56.0,29.80,ESE,107,12.7,12.7,84,0.00,CLR,,0.00,WeatherDisplay:10.37,2013-05-14 16:37:00,
2013-05-14 18:42:00,60.9,56.0,29.80,East,97,10.4,10.4,84,0.00,CLR,,0.00,WeatherDisplay:10.37,2013-05-14 16:42:00,
2013-05-14 18:47:00,61.0,55.8,29.79,SSE,149,12.7,12.7,83,0.00,CLR,,0.00,WeatherDisplay:10.37,2013-05-14 16:47:00,
2013-05-14 18:52:00,61.0,56.1,29.79,ESE,103,13.8,13.8,84,0.00,CLR,,0.00,WeatherDisplay:10.37,2013-05-14 16:52:00,
2013-05-14 18:57:00,60.8,55.9,29.79,East,89,12.7,12.7,84,0.00,CLR,,0.00,WeatherDisplay:10.37,2013-05-14 16:57:00,
2013-05-14 19:02:00,60.9,56.4,29.78,SE,125,11.5,11.5,85,0.00,CLR,,0.00,WeatherDisplay:10.37,2013-05-14 17:02:00,
2013-05-14 19:07:00,61.0,56.5,29.79,East,98,8.1,8.1,85,0.00,CLR,,0.00,WeatherDisplay:10.37,2013-05-14 17:07:00,
2013-05-14 19:12:00,60.9,56.0,29.79,ESE,105,12.7,12.7,84,0.00,CLR,,0.00,WeatherDisplay:10.37,2013-05-14 17:12:00,
2013-05-14 19:17:00,60.8,55.9,29.79,ENE,70,13.8,13.8,84,0.00,CLR,,0.00,WeatherDisplay:10.37,2013-05-14 17:17:00,
2013-05-14 19:22:00,60.9,56.4,29.79,SE,128,8.1,8.1,85,0.00,CLR,,0.00,WeatherDisplay:10.37,2013-05-14 17:22:00,
2013-05-14 19:27:00,61.0,56.5,29.79,East,98,13.0,13.0,85,0.00,CLR,,0.00,WeatherDisplay:10.37,2013-05-14 17:27:00,
2013-05-14 19:32:00,60.9,56.4,29.79,ESE,114,6.9,6.9,85,0.00,CLR,,0.00,WeatherDisplay:10.37,2013-05-14 17:32:00,
2013-05-14 19:37:00,60.9,56.0,29.79,ESE,114,12.0,12.0,84,0.00,CLR,,0.00,WeatherDisplay:10.37,2013-05-14 17:37:00,
2013-05-14 19:42:00,60.9,56.0,29.78,ESE,106,11.5,11.5,84,0.00,CLR,,0.00,WeatherDisplay:10.37,2013-05-14 17:42:00,
2013-05-14 19:47:00,60.8,56.3,29.78,SSE,168,13.8,13.8,85,0.00,CLR,,0.00,WeatherDisplay:10.37,2013-05-14 17:47:00,
2013-05-14 19:52:00,60.7,56.2,29.78,ESE,118,12.7,12.7,85,0.00,CLR,,0.00,WeatherDisplay:10.37,2013-05-14 17:52:00,
2013-05-14 19:57:00,60.7,56.2,29.77,ESE,122,16.1,16.1,85,0.00,CLR,,0.00,WeatherDisplay:10.37,2013-05-14 17:57:00,
2013-05-14 20:02:00,60.6,56.1,29.77,East,95,11.5,11.5,85,0.00,CLR,,0.00,WeatherDisplay:10.37,2013-05-14 18:02:00,
2013-05-14 20:07:00,60.7,56.2,29.77,ESE,106,11.5,11.5,85,0.00,CLR,,0.00,WeatherDisplay:10.37,2013-05-14 18:07:00,
2013-05-14 20:12:00,60.6,56.1,29.77,East,96,12.7,12.7,85,0.00,CLR,,0.00,WeatherDisplay:10.37,2013-05-14 18:12:00,
2013-05-14 20:17:00,60.5,56.0,29.77,ESE,105,11.5,11.5,85,0.00,CLR,,0.00,WeatherDisplay:10.37,2013-05-14 18:17:00,
2013-05-14 20:22:00,60.5,56.0,29.76,ESE,122,12.7,12.7,85,0.00,CLR,,0.00,WeatherDisplay:10.37,2013-05-14 18:22:00,
2013-05-14 20:27:00,60.4,55.9,29.76,ESE,107,11.5,11.5,85,0.00,CLR,,0.00,WeatherDisplay:10.37,2013-05-14 18:27:00,
2013-05-14 20:32:00,60.3,55.8,29.76,SE,127,11.5,11.5,85,0.00,CLR,,0.00,WeatherDisplay:10.37,2013-05-14 18:32:00,
2013-05-14 20:37:00,60.3,55.8,29.76,East,94,10.4,10.4,85,0.00,CLR,,0.00,WeatherDisplay:10.37,2013-05-14 18:37:00,
2013-05-14 20:42:00,60.2,55.7,29.76,ENE,77,11.5,11.5,85,0.00,CLR,,0.00,WeatherDisplay:10.37,2013-05-14 18:42:00,
2013-05-14 20:47:00,60.1,55.9,29.75,East,94,10.4,10.4,86,0.00,CLR,,0.00,WeatherDisplay:10.37,2013-05-14 18:47:00,
2013-05-14 20:52:00,60.0,55.8,29.76,ESE,105,11.5,11.5,86,0.00,CLR,,0.00,WeatherDisplay:10.37,2013-05-14 18:52:00,
2013-05-14 20:57:00,60.0,55.8,29.76,East,97,10.4,10.4,86,0.00,CLR,,0.00,WeatherDisplay:10.37,2013-05-14 18:57:00,
2013-05-14 21:02:00,59.9,55.7,29.76,ESE,110,11.5,11.5,86,0.00,CLR,,0.00,WeatherDisplay:10.37,2013-05-14 19:02:00,
2013-05-14 21:07:00,59.9,56.0,29.76,SE,135,15.0,15.0,87,0.00,CLR,,0.00,WeatherDisplay:10.37,2013-05-14 19:07:00,
2013-05-14 21:12:00,59.8,55.9,29.76,ESE,110,11.5,11.5,87,0.00,CLR,,0.00,WeatherDisplay:10.37,2013-05-14 19:12:00,
2013-05-14 21:17:00,59.7,55.8,29.76,ESE,102,12.7,12.7,87,0.00,CLR,,0.00,WeatherDisplay:10.37,2013-05-14 19:17:00,
2013-05-14 21:22:00,59.7,55.8,29.75,ESE,108,10.4,10.4,87,0.00,CLR,,0.00,WeatherDisplay:10.37,2013-05-14 19:22:00,
2013-05-14 21:27:00,59.7,55.8,29.75,SE,132,13.8,13.8,87,0.00,CLR,,0.00,WeatherDisplay:10.37,2013-05-14 19:27:00,
2013-05-14 21:32:00,59.7,55.8,29.75,ESE,106,15.0,15.0,87,0.00,CLR,,0.00,WeatherDisplay:10.37,2013-05-14 19:32:00,
2013-05-14 21:37:00,59.8,55.9,29.76,SE,129,13.8,13.8,87,0.00,CLR,,0.00,WeatherDisplay:10.37,2013-05-14 19:37:00,
2013-05-14 21:42:00,59.8,55.9,29.76,SE,137,10.4,10.4,87,0.00,CLR,,0.00,WeatherDisplay:10.37,2013-05-14 19:42:00,
2013-05-14 21:47:00,59.8,55.9,29.76,SE,135,13.8,13.8,87,0.00,CLR,,0.00,WeatherDisplay:10.37,2013-05-14 19:47:00,
2013-05-14 21:52:00,59.9,56.0,29.76,SE,133,11.5,11.5,87,0.00,CLR,,0.00,WeatherDisplay:10.37,2013-05-14 19:52:00,
2013-05-14 21:57:00,60.0,56.1,29.77,ESE,112,10.4,10.4,87,0.00,CLR,,0.00,WeatherDisplay:10.37,2013-05-14 19:57:00,
2013-05-14 22:02:00,60.0,56.4,29.77,ESE,102,11.5,11.5,88,0.00,CLR,,0.00,WeatherDisplay:10.37,2013-05-14 20:02:00,
2013-05-14 22:07:00,60.1,56.5,29.77,ESE,110,11.5,11.5,88,0.00,CLR,,0.00,WeatherDisplay:10.37,2013-05-14 20:07:00,
2013-05-14 22:12:00,60.1,56.5,29.77,ESE,119,8.0,8.0,88,0.00,CLR,,0.00,WeatherDisplay:10.37,2013-05-14 20:12:00,
2013-05-14 22:17:00,60.1,56.5,29.78,ESE,123,9.2,9.2,88,0.00,CLR,,0.00,WeatherDisplay:10.37,2013-05-14 20:17:00,
2013-05-14 22:22:00,60.1,56.5,29.77,East,93,6.9,6.9,88,0.00,CLR,,0.00,WeatherDisplay:10.37,2013-05-14 20:22:00,
2013-05-14 22:27:00,60.1,56.5,29.77,ESE,115,9.2,9.2,88,0.00,CLR,,0.00,WeatherDisplay:10.37,2013-05-14 20:27:00,
2013-05-14 22:32:00,60.1,56.5,29.77,East,93,6.9,6.9,88,0.00,CLR,,0.00,WeatherDisplay:10.37,2013-05-14 20:32:00,
2013-05-14 22:37:00,60.2,56.6,29.77,ESE,117,10.0,10.0,88,0.00,CLR,,0.00,WeatherDisplay:10.37,2013-05-14 20:37:00,
2013-05-14 22:42:00,60.2,56.6,29.77,SE,142,9.2,9.2,88,0.00,CLR,,0.00,WeatherDisplay:10.37,2013-05-14 20:42:00,
2013-05-14 22:47:00,60.2,56.6,29.76,East,93,9.2,9.2,88,0.00,CLR,,0.00,WeatherDisplay:10.37,2013-05-14 20:47:00,
2013-05-14 22:52:00,60.2,56.6,29.76,East,98,10.0,10.0,88,0.00,CLR,,0.00,WeatherDisplay:10.37,2013-05-14 20:52:00,
2013-05-14 22:57:00,60.2,56.6,29.76,ESE,103,6.0,6.0,88,0.00,CLR,,0.00,WeatherDisplay:10.37,2013-05-14 20:57:00,
2013-05-14 23:02:00,60.2,56.6,29.76,East,98,7.0,7.0,88,0.00,CLR,,0.00,WeatherDisplay:10.37,2013-05-14 21:02:00,
2013-05-14 23:07:00,60.3,56.7,29.75,East,79,11.5,11.5,88,0.00,CLR,,0.00,WeatherDisplay:10.37,2013-05-14 21:07:00,
2013-05-14 23:12:00,60.3,56.7,29.75,ESE,107,10.4,10.4,88,0.00,CLR,,0.00,WeatherDisplay:10.37,2013-05-14 21:12:00,
2013-05-14 23:17:00,60.2,56.6,29.75,SE,126,8.1,8.1,88,0.00,CLR,,0.00,WeatherDisplay:10.37,2013-05-14 21:17:00,
2013-05-14 23:22:00,60.2,56.6,29.75,ESE,118,9.2,9.2,88,0.00,CLR,,0.00,WeatherDisplay:10.37,2013-05-14 21:22:00,
2013-05-14 23:27:00,60.1,56.5,29.75,ESE,110,8.1,8.1,88,0.00,CLR,,0.00,WeatherDisplay:10.37,2013-05-14 21:27:00,
2013-05-14 23:32:00,60.1,56.5,29.74,East,89,4.6,4.6,88,0.00,CLR,,0.00,WeatherDisplay:10.37,2013-05-14 21:32:00,
2013-05-14 23:37:00,60.1,56.5,29.74,ENE,64,8.1,8.1,88,0.00,CLR,,0.00,WeatherDisplay:10.37,2013-05-14 21:37:00,
2013-05-14 23:42:00,60.0,56.4,29.74,ENE,74,6.9,6.9,88,0.00,CLR,,0.00,WeatherDisplay:10.37,2013-05-14 21:42:00,
2013-05-14 23:47:00,59.9,56.3,29.74,ESE,106,8.1,8.1,88,0.00,CLR,,0.00,WeatherDisplay:10.37,2013-05-14 21:47:00,
2013-05-14 23:52:00,59.9,56.6,29.74,East,96,5.8,5.8,89,0.00,CLR,,0.00,WeatherDisplay:10.37,2013-05-14 21:52:00,
2013-05-14 23:57:00,59.9,56.6,29.74,East,79,6.0,6.0,89,0.00,CLR,,0.00,WeatherDisplay:10.37,2013-05-14 21:57:00,